Aviation Digital Data Service (ADDS)

Output produced by METARs form (1414 UTC 08 May 2021)
found at http://aviationweather.gov/metar/data/
 
KNEW 081353Z AUTO 14012KT 10SM CLR 26/15 A3011 RMK AO2 SLP190 T02560150
KNEW 081357Z 0814/0912 15012G21KT P6SM FEW250 
     FM091000 18009KT P6SM FEW030